Fox Creek, Idaho
Current Conditions -  °F | °C
As of 6:56 PM on Friday 28 Nov 2014 (Local Time) from KDIJ Reporting Station
Broken Clouds Broken Clouds  
Wind Chill: 36°   Ceiling: 11000
Heat Index: 44°   Visibility: 10mi
Dew Point: 19°   Wind: 18mph
Humidity: 37%   Direction: 210°SSW
Pressure: 29.75"   Gusts: NA
Location:  43.6065°N, 111.138°W
Report Text: KDIJ 290156Z AUTO 21016KT 10SM BKN110 07/M07 A2975 RMK AO2 T00661072 BKN V OVC SLP029
Loading
Personal Weather Stations






























Interactive Weather Map New forecast layout! Learn more

10-Day Weather Forecast

Advertisements
Track Severe Weather on mobile